Kezdőlap
METAR-TAF:

METAR-TAF

Repülőterek :

Danbury Municipal Airport

Danbury, Connecticut, Amerikai Egyesült Államok

földrajzi szélesség: 41-22-18N, földrajzi hosszúság: 073-29-04W, magasság: 139 m

Jelenlegi meteorológiai megfigyelések

A jelentés 28 perccel ezelõtt készült, 04:53 UTC
Délnyugati szél 14 kt
Hőmérséklet 11°C
Páratartalom 94%
Légköri nyomás 1007 hPa
Látótávolság: 16.1 km
Borult 1000 lábon
enyhe esõ

METAR: KDXR 100453Z AUTO 22014KT 10SM -RA OVC010 11/10 A2973 RMK AO2 RAB06E17B35 SLP065 P0001 T01110100 401221017

Idő: 00:21 (05:21 UTC)


TAF: hiányzik

Meteorológiai megfigyelések és előrejelzések több, mint 4000 repülőtéren (METAR és TAF jelentéseket).

A térképen piros és sárga pontok jelzik az elérhető meteorológiai állomásokat.

Mozgassa az egeret a pont fölött, hogy megjelenjen az állomás neve.

Azután kattintson az időjárási megfigyelések és előrejelzések megtekintéséhez.

A térkép megváltoztatása: kattintson a fekete keresztel jelölt zöld gombra ráközelítéshez, a vonallal jelölt zöld gombra távolításhoz, vagy a zöld nyilakra a szomszédos térképek eléréséhez.


METAR-TAF: